CEB357 RPLK-RPLL
Flight info
| Callsign | CEB357 |
|---|---|
| Flight time | 0h 40m |
| Altitude | 32000 |
| Route | NGA2D NGA W9 AKDAP AKDAP7R |
| Aircraft | A20N/M-SDE2E3FGHIJ1RWXY/LB1 |
Departure
| Time | 2026-04-26 09:57 |
|---|---|
| Airport | Bicol International Airport (RPLK) |
Arrival
| Time | 2026-04-26 10:37 |
|---|---|
| Airport | Ninoy Aquino International Airport (RPLL) |
| Time | Latitude | Longitude | Altitude | Speed | Heading |
|---|---|---|---|---|---|
| 2026-04-26 09:44 | 13.11236 | 123.68103 | 309 ft | 0 kts | 137° |
| 2026-04-26 09:46 | 13.11237 | 123.68103 | 309 ft | 0 kts | 137° |
| 2026-04-26 09:47 | 13.11246 | 123.68095 | 309 ft | 2 kts | 141° |
| 2026-04-26 09:47 | 13.11257 | 123.68085 | 309 ft | 2 kts | 136° |
| 2026-04-26 09:47 | 13.11268 | 123.68074 | 308 ft | 2 kts | 137° |
| 2026-04-26 09:48 | 13.11279 | 123.68064 | 308 ft | 2 kts | 136° |
| 2026-04-26 09:48 | 13.11291 | 123.68055 | 308 ft | 2 kts | 171° |
| 2026-04-26 09:48 | 13.11306 | 123.68057 | 308 ft | 2 kts | 206° |
| 2026-04-26 09:48 | 13.11314 | 123.68061 | 308 ft | 1 kts | 227° |
| 2026-04-26 09:49 | 13.11318 | 123.68066 | 307 ft | 0 kts | 226° |
| 2026-04-26 09:51 | 13.11317 | 123.68065 | 307 ft | 1 kts | 226° |
| 2026-04-26 09:51 | 13.11302 | 123.68050 | 308 ft | 5 kts | 225° |
| 2026-04-26 09:51 | 13.11263 | 123.68009 | 309 ft | 8 kts | 227° |
| 2026-04-26 09:51 | 13.11237 | 123.67972 | 309 ft | 6 kts | 245° |
| 2026-04-26 09:52 | 13.11243 | 123.67927 | 309 ft | 7 kts | 301° |
| 2026-04-26 09:52 | 13.11309 | 123.67815 | 308 ft | 11 kts | 240° |
| 2026-04-26 09:52 | 13.11258 | 123.67758 | 310 ft | 11 kts | 227° |
| 2026-04-26 09:53 | 13.11193 | 123.67685 | 313 ft | 17 kts | 227° |
| 2026-04-26 09:53 | 13.11094 | 123.67576 | 319 ft | 22 kts | 227° |
| 2026-04-26 09:53 | 13.10993 | 123.67467 | 325 ft | 19 kts | 225° |
| 2026-04-26 09:53 | 13.10911 | 123.67373 | 329 ft | 17 kts | 228° |
| 2026-04-26 09:54 | 13.10820 | 123.67274 | 333 ft | 19 kts | 227° |
| 2026-04-26 09:54 | 13.10736 | 123.67180 | 336 ft | 17 kts | 227° |
| 2026-04-26 09:54 | 13.10655 | 123.67094 | 338 ft | 15 kts | 217° |
| 2026-04-26 09:54 | 13.10572 | 123.67059 | 339 ft | 12 kts | 195° |
| 2026-04-26 09:55 | 13.10500 | 123.67027 | 339 ft | 8 kts | 221° |
| 2026-04-26 09:55 | 13.10491 | 123.66971 | 340 ft | 8 kts | 295° |
| 2026-04-26 09:55 | 13.10524 | 123.66953 | 340 ft | 5 kts | 14° |
| 2026-04-26 09:55 | 13.10544 | 123.66969 | 340 ft | 0 kts | 46° |
| 2026-04-26 09:56 | 13.10557 | 123.66982 | 340 ft | 17 kts | 47° |
| 2026-04-26 09:56 | 13.10852 | 123.67310 | 331 ft | 102 kts | 47° |
| 2026-04-26 09:56 | 13.11481 | 123.68001 | 400 ft | 154 kts | 50° |
| 2026-04-26 09:57 | 13.12186 | 123.68774 | 1142 ft | 148 kts | 50° |
| 2026-04-26 09:57 | 13.12890 | 123.69546 | 1819 ft | 151 kts | 49° |
| 2026-04-26 09:57 | 13.13612 | 123.70350 | 2379 ft | 161 kts | 49° |
| 2026-04-26 09:57 | 13.14426 | 123.71243 | 2829 ft | 181 kts | 49° |
| 2026-04-26 09:58 | 13.15315 | 123.72221 | 3371 ft | 198 kts | 49° |
| 2026-04-26 09:58 | 13.16298 | 123.73301 | 3864 ft | 220 kts | 49° |
| 2026-04-26 09:58 | 13.17397 | 123.74509 | 4412 ft | 239 kts | 49° |
| 2026-04-26 09:58 | 13.18560 | 123.75792 | 4988 ft | 257 kts | 48° |
| 2026-04-26 09:59 | 13.19827 | 123.77187 | 5658 ft | 272 kts | 48° |
| 2026-04-26 09:59 | 13.21116 | 123.78610 | 6548 ft | 277 kts | 48° |
| 2026-04-26 09:59 | 13.22441 | 123.80073 | 7474 ft | 280 kts | 48° |
| 2026-04-26 09:59 | 13.23770 | 123.81509 | 8340 ft | 284 kts | 43° |
| 2026-04-26 10:00 | 13.25497 | 123.82494 | 9232 ft | 286 kts | 12° |
| 2026-04-26 10:00 | 13.27387 | 123.82534 | 10408 ft | 273 kts | 347° |
| 2026-04-26 10:00 | 13.29064 | 123.81806 | 11541 ft | 259 kts | 322° |
| 2026-04-26 10:00 | 13.30296 | 123.80509 | 12378 ft | 256 kts | 304° |
| 2026-04-26 10:01 | 13.31356 | 123.79029 | 13040 ft | 262 kts | 312° |
| 2026-04-26 10:01 | 13.32814 | 123.77883 | 13723 ft | 267 kts | 334° |
| 2026-04-26 10:01 | 13.34539 | 123.77147 | 14461 ft | 269 kts | 338° |
| 2026-04-26 10:01 | 13.36295 | 123.76468 | 15138 ft | 273 kts | 339° |
| 2026-04-26 10:02 | 13.38096 | 123.75798 | 15829 ft | 276 kts | 339° |
| 2026-04-26 10:02 | 13.39900 | 123.75136 | 16505 ft | 278 kts | 339° |
| 2026-04-26 10:02 | 13.41746 | 123.74461 | 17177 ft | 281 kts | 339° |
| 2026-04-26 10:02 | 13.43573 | 123.73793 | 17821 ft | 283 kts | 339° |
| 2026-04-26 10:03 | 13.45376 | 123.72985 | 18443 ft | 284 kts | 322° |
| 2026-04-26 10:03 | 13.46674 | 123.71478 | 19102 ft | 282 kts | 294° |
| 2026-04-26 10:03 | 13.47277 | 123.69569 | 19739 ft | 282 kts | 283° |
| 2026-04-26 10:03 | 13.47749 | 123.67604 | 20259 ft | 288 kts | 283° |
| 2026-04-26 10:04 | 13.48220 | 123.65681 | 20794 ft | 292 kts | 283° |
| 2026-04-26 10:04 | 13.48708 | 123.63731 | 21350 ft | 295 kts | 284° |
| 2026-04-26 10:04 | 13.49232 | 123.61667 | 21925 ft | 298 kts | 284° |
| 2026-04-26 10:04 | 13.49761 | 123.59606 | 22483 ft | 301 kts | 284° |
| 2026-04-26 10:05 | 13.50294 | 123.57536 | 23032 ft | 304 kts | 284° |
| 2026-04-26 10:05 | 13.50841 | 123.55420 | 23576 ft | 308 kts | 284° |
| 2026-04-26 10:05 | 13.51390 | 123.53301 | 24102 ft | 311 kts | 284° |
| 2026-04-26 10:05 | 13.51952 | 123.51131 | 24622 ft | 314 kts | 284° |
| 2026-04-26 10:06 | 13.52515 | 123.48959 | 25129 ft | 317 kts | 284° |
| 2026-04-26 10:06 | 13.53085 | 123.46755 | 25627 ft | 320 kts | 284° |
| 2026-04-26 10:06 | 13.53657 | 123.44546 | 26109 ft | 323 kts | 284° |
| 2026-04-26 10:06 | 13.54234 | 123.42321 | 26579 ft | 327 kts | 284° |
| 2026-04-26 10:07 | 13.54823 | 123.40048 | 27045 ft | 330 kts | 284° |
| 2026-04-26 10:07 | 13.55419 | 123.37743 | 27371 ft | 337 kts | 284° |
| 2026-04-26 10:07 | 13.56027 | 123.35392 | 27585 ft | 347 kts | 284° |
| 2026-04-26 10:07 | 13.56657 | 123.32945 | 27798 ft | 357 kts | 284° |
| 2026-04-26 10:08 | 13.57310 | 123.30409 | 28007 ft | 367 kts | 284° |
| 2026-04-26 10:08 | 13.58061 | 123.27890 | 28203 ft | 377 kts | 288° |
| 2026-04-26 10:08 | 13.59015 | 123.25327 | 28397 ft | 386 kts | 292° |
| 2026-04-26 10:08 | 13.60144 | 123.22817 | 28584 ft | 395 kts | 295° |
| 2026-04-26 10:09 | 13.61379 | 123.20227 | 28766 ft | 404 kts | 295° |
| 2026-04-26 10:09 | 13.62624 | 123.17634 | 28939 ft | 412 kts | 295° |
| 2026-04-26 10:09 | 13.63443 | 123.15928 | 29047 ft | 416 kts | 295° |
| 2026-04-26 10:09 | 13.64724 | 123.13255 | 29210 ft | 424 kts | 295° |
| 2026-04-26 10:10 | 13.66046 | 123.10490 | 29475 ft | 428 kts | 295° |
| 2026-04-26 10:10 | 13.67340 | 123.07783 | 29890 ft | 428 kts | 295° |
| 2026-04-26 10:10 | 13.68660 | 123.05022 | 30355 ft | 426 kts | 295° |
| 2026-04-26 10:10 | 13.69971 | 123.02275 | 30729 ft | 426 kts | 295° |
| 2026-04-26 10:11 | 13.71276 | 122.99540 | 31021 ft | 428 kts | 295° |
| 2026-04-26 10:11 | 13.72581 | 122.96802 | 31300 ft | 430 kts | 295° |
| 2026-04-26 10:11 | 13.73908 | 122.94020 | 31596 ft | 431 kts | 295° |
| 2026-04-26 10:11 | 13.75229 | 122.91249 | 31829 ft | 434 kts | 295° |
| 2026-04-26 10:12 | 13.76568 | 122.88440 | 31941 ft | 439 kts | 295° |
| 2026-04-26 10:12 | 13.77927 | 122.85590 | 31992 ft | 446 kts | 295° |
| 2026-04-26 10:12 | 13.80695 | 122.79775 | 32005 ft | 459 kts | 295° |
| 2026-04-26 10:13 | 13.83515 | 122.73829 | 32007 ft | 466 kts | 295° |
| 2026-04-26 10:13 | 13.86348 | 122.67844 | 32008 ft | 467 kts | 295° |
| 2026-04-26 10:14 | 13.89189 | 122.61846 | 32009 ft | 466 kts | 295° |
| 2026-04-26 10:14 | 13.92043 | 122.55828 | 32008 ft | 466 kts | 295° |
| 2026-04-26 10:15 | 13.94900 | 122.49800 | 32008 ft | 466 kts | 295° |
| 2026-04-26 10:15 | 13.97745 | 122.43793 | 32008 ft | 466 kts | 295° |
| 2026-04-26 10:16 | 14.00258 | 122.38489 | 32008 ft | 466 kts | 295° |
| 2026-04-26 10:16 | 14.03101 | 122.32474 | 32008 ft | 466 kts | 295° |
| 2026-04-26 10:17 | 14.05927 | 122.26473 | 32009 ft | 466 kts | 295° |
| 2026-04-26 10:17 | 14.08756 | 122.20483 | 32009 ft | 467 kts | 295° |
| 2026-04-26 10:18 | 14.11581 | 122.14538 | 32005 ft | 444 kts | 295° |
| 2026-04-26 10:18 | 14.14268 | 122.08889 | 32009 ft | 438 kts | 295° |
| 2026-04-26 10:19 | 14.16924 | 122.03253 | 32008 ft | 438 kts | 294° |
| 2026-04-26 10:19 | 14.19585 | 121.97597 | 32008 ft | 439 kts | 295° |
| 2026-04-26 10:20 | 14.21799 | 121.92890 | 32008 ft | 439 kts | 295° |
| 2026-04-26 10:20 | 14.23491 | 121.89102 | 32005 ft | 425 kts | 292° |
| 2026-04-26 10:20 | 14.24662 | 121.86351 | 32003 ft | 409 kts | 292° |
| 2026-04-26 10:21 | 14.25786 | 121.83698 | 31856 ft | 400 kts | 292° |
| 2026-04-26 10:21 | 14.26894 | 121.81091 | 31073 ft | 407 kts | 292° |
| 2026-04-26 10:21 | 14.28052 | 121.78374 | 29927 ft | 422 kts | 292° |
| 2026-04-26 10:21 | 14.29230 | 121.75567 | 28654 ft | 437 kts | 289° |
| 2026-04-26 10:22 | 14.29975 | 121.72499 | 27273 ft | 452 kts | 278° |
| 2026-04-26 10:22 | 14.30449 | 121.69250 | 25809 ft | 467 kts | 278° |
| 2026-04-26 10:22 | 14.31047 | 121.65949 | 24368 ft | 478 kts | 281° |
| 2026-04-26 10:22 | 14.31821 | 121.62637 | 23323 ft | 477 kts | 284° |
| 2026-04-26 10:23 | 14.32720 | 121.59347 | 22748 ft | 466 kts | 286° |
| 2026-04-26 10:23 | 14.33660 | 121.56173 | 22084 ft | 459 kts | 287° |
| 2026-04-26 10:23 | 14.34616 | 121.53078 | 21328 ft | 455 kts | 287° |
| 2026-04-26 10:23 | 14.35345 | 121.49930 | 20559 ft | 450 kts | 277° |
| 2026-04-26 10:24 | 14.35397 | 121.46707 | 19837 ft | 444 kts | 264° |
| 2026-04-26 10:24 | 14.34907 | 121.43574 | 19125 ft | 439 kts | 258° |
| 2026-04-26 10:24 | 14.34284 | 121.40548 | 18399 ft | 435 kts | 257° |
| 2026-04-26 10:24 | 14.33628 | 121.37524 | 17677 ft | 431 kts | 257° |
| 2026-04-26 10:25 | 14.32971 | 121.34528 | 16969 ft | 427 kts | 257° |
| 2026-04-26 10:25 | 14.32312 | 121.31523 | 16357 ft | 420 kts | 257° |
| 2026-04-26 10:25 | 14.31681 | 121.28643 | 15959 ft | 409 kts | 257° |
| 2026-04-26 10:25 | 14.31054 | 121.25788 | 15250 ft | 408 kts | 257° |
| 2026-04-26 10:26 | 14.30428 | 121.22942 | 14300 ft | 412 kts | 257° |
| 2026-04-26 10:26 | 14.29796 | 121.20064 | 13565 ft | 409 kts | 257° |
| 2026-04-26 10:26 | 14.29173 | 121.17230 | 12909 ft | 405 kts | 257° |
| 2026-04-26 10:26 | 14.28548 | 121.14383 | 12228 ft | 401 kts | 257° |
| 2026-04-26 10:27 | 14.27941 | 121.11616 | 11553 ft | 398 kts | 257° |
| 2026-04-26 10:27 | 14.27337 | 121.08864 | 10883 ft | 394 kts | 257° |
| 2026-04-26 10:27 | 14.26734 | 121.06117 | 10213 ft | 391 kts | 257° |
| 2026-04-26 10:27 | 14.26132 | 121.03399 | 9543 ft | 387 kts | 257° |
| 2026-04-26 10:28 | 14.25538 | 121.00693 | 8851 ft | 382 kts | 257° |
| 2026-04-26 10:28 | 14.24961 | 120.98064 | 7853 ft | 376 kts | 257° |
| 2026-04-26 10:28 | 14.24395 | 120.95473 | 6703 ft | 372 kts | 257° |
| 2026-04-26 10:28 | 14.23835 | 120.92896 | 5563 ft | 367 kts | 257° |
| 2026-04-26 10:29 | 14.23514 | 120.90328 | 4617 ft | 356 kts | 272° |
| 2026-04-26 10:29 | 14.23958 | 120.87890 | 4020 ft | 338 kts | 285° |
| 2026-04-26 10:29 | 14.24604 | 120.85635 | 3695 ft | 314 kts | 287° |
| 2026-04-26 10:29 | 14.25246 | 120.83580 | 3638 ft | 286 kts | 291° |
| 2026-04-26 10:30 | 14.26298 | 120.81955 | 3620 ft | 259 kts | 319° |
| 2026-04-26 10:30 | 14.27661 | 120.80874 | 3629 ft | 238 kts | 326° |
| 2026-04-26 10:30 | 14.28997 | 120.79949 | 3630 ft | 229 kts | 327° |
| 2026-04-26 10:30 | 14.30320 | 120.79057 | 3434 ft | 226 kts | 327° |
| 2026-04-26 10:31 | 14.31671 | 120.78210 | 3094 ft | 228 kts | 338° |
| 2026-04-26 10:31 | 14.33234 | 120.78001 | 2788 ft | 224 kts | 13° |
| 2026-04-26 10:31 | 14.34692 | 120.78511 | 2654 ft | 222 kts | 25° |
| 2026-04-26 10:31 | 14.36114 | 120.79185 | 2647 ft | 224 kts | 27° |
| 2026-04-26 10:32 | 14.37515 | 120.79891 | 2643 ft | 223 kts | 28° |
| 2026-04-26 10:32 | 14.38789 | 120.80802 | 2639 ft | 222 kts | 46° |
| 2026-04-26 10:32 | 14.39766 | 120.82034 | 2641 ft | 221 kts | 57° |
| 2026-04-26 10:32 | 14.40586 | 120.83401 | 2641 ft | 221 kts | 61° |
| 2026-04-26 10:33 | 14.41344 | 120.84779 | 2639 ft | 220 kts | 62° |
| 2026-04-26 10:33 | 14.42065 | 120.86101 | 2613 ft | 205 kts | 62° |
| 2026-04-26 10:33 | 14.42750 | 120.87347 | 2754 ft | 190 kts | 62° |
| 2026-04-26 10:33 | 14.43380 | 120.88485 | 2601 ft | 171 kts | 62° |
| 2026-04-26 10:34 | 14.43950 | 120.89509 | 2379 ft | 160 kts | 62° |
| 2026-04-26 10:34 | 14.44483 | 120.90467 | 2161 ft | 146 kts | 62° |
| 2026-04-26 10:34 | 14.44971 | 120.91345 | 1965 ft | 139 kts | 62° |
| 2026-04-26 10:34 | 14.45455 | 120.92217 | 1795 ft | 139 kts | 62° |
| 2026-04-26 10:35 | 14.45935 | 120.93082 | 1621 ft | 138 kts | 62° |
| 2026-04-26 10:35 | 14.46415 | 120.93944 | 1445 ft | 138 kts | 62° |
| 2026-04-26 10:35 | 14.46892 | 120.94803 | 1261 ft | 137 kts | 62° |
| 2026-04-26 10:35 | 14.47369 | 120.95661 | 1075 ft | 137 kts | 62° |
| 2026-04-26 10:36 | 14.47855 | 120.96531 | 885 ft | 137 kts | 62° |
| 2026-04-26 10:36 | 14.48327 | 120.97383 | 695 ft | 136 kts | 63° |
| 2026-04-26 10:36 | 14.48792 | 120.98225 | 521 ft | 135 kts | 63° |
| 2026-04-26 10:36 | 14.49265 | 120.99066 | 348 ft | 135 kts | 64° |
| 2026-04-26 10:37 | 14.49725 | 120.99902 | 174 ft | 134 kts | 64° |
| 2026-04-26 10:37 | 14.50174 | 121.00729 | 84 ft | 121 kts | 57° |
| 2026-04-26 10:37 | 14.50511 | 121.01323 | 84 ft | 71 kts | 59° |
| 2026-04-26 10:37 | 14.50657 | 121.01590 | 84 ft | 23 kts | 59° |
| 2026-04-26 10:38 | 14.50742 | 121.01695 | 83 ft | 16 kts | 47° |
| 2026-04-26 10:38 | 14.50832 | 121.01771 | 84 ft | 13 kts | 36° |
| 2026-04-26 10:38 | 14.50904 | 121.01774 | 84 ft | 11 kts | 321° |
| 2026-04-26 10:38 | 14.50964 | 121.01713 | 84 ft | 12 kts | 314° |
| 2026-04-26 10:39 | 14.51029 | 121.01644 | 84 ft | 13 kts | 315° |
| 2026-04-26 10:39 | 14.51100 | 121.01571 | 84 ft | 14 kts | 315° |
| 2026-04-26 10:39 | 14.51174 | 121.01495 | 84 ft | 15 kts | 315° |
| 2026-04-26 10:39 | 14.51240 | 121.01435 | 84 ft | 8 kts | 342° |
| 2026-04-26 10:40 | 14.51299 | 121.01452 | 84 ft | 9 kts | 45° |
| 2026-04-26 10:40 | 14.51347 | 121.01509 | 84 ft | 11 kts | 49° |
| 2026-04-26 10:40 | 14.51405 | 121.01571 | 84 ft | 11 kts | 43° |
| 2026-04-26 10:40 | 14.51472 | 121.01572 | 84 ft | 10 kts | 315° |
| 2026-04-26 10:41 | 14.51525 | 121.01518 | 84 ft | 10 kts | 315° |
| 2026-04-26 10:41 | 14.51579 | 121.01463 | 84 ft | 11 kts | 315° |
| 2026-04-26 10:41 | 14.51647 | 121.01392 | 84 ft | 17 kts | 314° |
| 2026-04-26 10:41 | 14.51736 | 121.01299 | 84 ft | 17 kts | 315° |
| 2026-04-26 10:42 | 14.51822 | 121.01210 | 84 ft | 16 kts | 315° |
| 2026-04-26 10:42 | 14.51897 | 121.01135 | 84 ft | 9 kts | 314° |
| 2026-04-26 10:42 | 14.51943 | 121.01128 | 84 ft | 7 kts | 44° |
| 2026-04-26 10:42 | 14.51978 | 121.01166 | 84 ft | 7 kts | 45° |
| 2026-04-26 10:43 | 14.51986 | 121.01174 | 84 ft | 0 kts | 45° |
| 2026-04-26 10:43 | 14.51991 | 121.01179 | 84 ft | 0 kts | 45° |